Time;durP1;ratioP1;P1;durP2;ratioP2;P2;SDS_P1;SDS_P2;PMS_P1;PMS_P2;Temp;Humidity;BMP_temperature;BMP_pressure;BME280_temperature;BME280_humidity;BME280_pressure;Samples;Min_cycle;Max_cycle;Signal;HPM_P1;HPM_P2
2022/01/09 00:00:36;;;;;;;46.23;26.13;;;;;;;8.43;92.09;98843.56;5053163;28;20443;-58
2022/01/09 00:03:03;;;;;;;36.67;22.57;;;;;;;8.37;92.31;98840.03;5053007;28;20249;-58
2022/01/09 00:05:31;;;;;;;45.93;26.70;;;;;;;8.34;92.36;98832.31;5053067;28;20192;-58
2022/01/09 00:07:59;;;;;;;34.53;22.50;;;;;;;8.31;92.31;98835.69;5052219;28;20230;-58
2022/01/09 00:10:29;;;;;;;40.60;24.63;;;;;;;8.32;92.44;98830.59;5052613;28;20193;-58
2022/01/09 00:12:56;;;;;;;37.10;22.00;;;;;;;8.30;92.60;98829.72;5052632;28;20200;-58
2022/01/09 00:15:23;;;;;;;39.23;23.43;;;;;;;8.26;92.21;98825.38;5052429;28;20207;-58
2022/01/09 00:17:50;;;;;;;34.77;22.47;;;;;;;8.29;92.21;98837.38;5052514;28;20195;-57
2022/01/09 00:20:17;;;;;;;38.53;23.37;;;;;;;8.27;92.51;98834.78;5052939;28;20206;-58
2022/01/09 00:22:47;;;;;;;36.73;23.27;;;;;;;8.23;92.74;98824.47;5052419;28;20204;-58
2022/01/09 00:25:17;;;;;;;40.20;25.43;;;;;;;8.29;92.38;98825.41;5052624;28;20285;-58
2022/01/09 00:27:44;;;;;;;37.37;23.47;;;;;;;8.30;92.33;98831.41;5052134;28;20607;-58
2022/01/09 00:30:13;;;;;;;38.83;23.17;;;;;;;7.98;92.03;98768.66;5052492;28;20189;-58
2022/01/09 00:32:40;;;;;;;35.13;24.10;;;;;;;8.30;92.23;98824.59;5052376;28;20195;-58
2022/01/09 00:35:08;;;;;;;42.95;26.95;;;;;;;8.35;92.38;98827.19;5051959;28;20443;-57
2022/01/09 00:37:35;;;;;;;47.03;25.03;;;;;;;8.33;91.90;98831.44;5052096;28;20203;-58
2022/01/09 00:40:04;;;;;;;45.63;25.10;;;;;;;8.34;91.91;98828.06;5052085;28;20676;-58
2022/01/09 00:42:32;;;;;;;46.13;26.43;;;;;;;8.32;92.07;98824.63;5052279;28;20305;-57
2022/01/09 00:45:00;;;;;;;52.70;29.67;;;;;;;8.15;92.09;98791.09;5052357;28;20201;-57
2022/01/09 00:47:26;;;;;;;49.63;28.67;;;;;;;8.27;92.37;98809.19;5052274;28;20255;-57
2022/01/09 00:49:53;;;;;;;55.00;29.73;;;;;;;8.27;92.41;98809.19;5052031;28;20200;-57
2022/01/09 00:52:20;;;;;;;52.73;29.93;;;;;;;8.14;92.50;98802.16;5052089;28;20286;-57
2022/01/09 00:54:47;;;;;;;51.50;28.43;;;;;;;8.14;92.75;98807.25;5051916;28;20227;-58
2022/01/09 00:57:14;;;;;;;68.80;34.13;;;;;;;8.17;92.85;98804.75;5052035;28;20570;-58
2022/01/09 00:59:42;;;;;;;65.20;33.90;;;;;;;8.19;93.29;98808.19;5052149;28;20203;-58
2022/01/09 01:02:09;;;;;;;61.67;32.10;;;;;;;8.13;93.53;98790.19;5051758;28;20196;-58
2022/01/09 01:04:38;;;;;;;61.27;32.60;;;;;;;8.11;93.34;98786.75;5051811;28;20680;-57
2022/01/09 01:07:05;;;;;;;70.10;35.07;;;;;;;8.11;93.22;98791.00;5051769;28;20192;-58
2022/01/09 01:09:32;;;;;;;72.30;34.77;;;;;;;8.08;93.84;98781.59;5070226;28;20216;-58
2022/01/09 01:11:59;;;;;;;67.10;35.53;;;;;;;8.10;93.86;98779.06;5071527;28;20286;-58
2022/01/09 01:14:27;;;;;;;68.17;35.20;;;;;;;8.07;93.68;98784.13;5071219;28;20684;-59
2022/01/09 01:16:55;;;;;;;73.90;35.73;;;;;;;8.06;94.00;98787.53;5071685;28;20248;-58
2022/01/09 01:19:23;;;;;;;75.93;37.83;;;;;;;8.12;93.99;98796.16;5070962;28;20202;-58
2022/01/09 01:21:50;;;;;;;70.60;36.57;;;;;;;8.09;93.58;98793.56;5070992;28;20190;-58
2022/01/09 01:24:18;;;;;;;69.13;34.93;;;;;;;8.09;93.55;98783.31;5071117;28;20282;-58
2022/01/09 01:26:45;;;;;;;79.95;45.00;;;;;;;8.21;93.69;98785.19;5070021;28;20530;-58
2022/01/09 01:29:12;;;;;;;65.23;37.27;;;;;;;8.19;92.82;98774.94;5070994;28;20227;-58
2022/01/09 01:31:39;;;;;;;70.13;35.17;;;;;;;8.24;92.91;98777.56;5071305;28;20222;-57
2022/01/09 01:34:08;;;;;;;66.27;34.10;;;;;;;8.23;92.49;98776.69;5070977;28;20282;-58
2022/01/09 01:36:35;;;;;;;64.80;36.37;;;;;;;8.29;92.48;98775.97;5071000;28;20198;-58
2022/01/09 01:39:02;;;;;;;61.37;33.03;;;;;;;8.22;92.47;98774.09;5071034;28;20659;-58
2022/01/09 01:41:28;;;;;;;72.07;35.13;;;;;;;8.18;92.78;98780.91;5070857;28;20286;-58
2022/01/09 01:43:55;;;;;;;69.50;34.60;;;;;;;8.16;92.30;98774.00;5071171;28;20280;-58
2022/01/09 01:46:22;;;;;;;61.63;34.53;;;;;;;8.13;92.61;98776.56;5070998;28;20199;-58
2022/01/09 01:48:49;;;;;;;62.37;33.67;;;;;;;8.11;93.13;98763.72;5070674;28;20705;-57
2022/01/09 01:51:20;;;;;;;62.53;32.73;;;;;;;8.10;93.28;98763.72;5071057;28;20201;-58
2022/01/09 01:53:47;;;;;;;63.67;33.47;;;;;;;8.12;93.04;98757.78;5071288;28;20275;-58
2022/01/09 01:56:19;;;;;;;57.57;32.23;;;;;;;8.10;93.34;98753.50;5070660;28;20196;-58
2022/01/09 01:58:46;;;;;;;59.27;31.70;;;;;;;8.14;93.08;98745.00;5070601;28;20191;-58
2022/01/09 02:01:13;;;;;;;56.50;32.03;;;;;;;8.14;93.47;98738.19;5070730;28;20302;-58
2022/01/09 02:03:40;;;;;;;57.87;31.20;;;;;;;8.14;93.17;98732.22;5070555;28;20194;-58
2022/01/09 02:06:08;;;;;;;57.07;32.13;;;;;;;8.18;93.10;98737.41;5070509;28;20208;-57
2022/01/09 02:08:36;;;;;;;54.83;32.03;;;;;;;8.16;93.18;98744.19;5070743;28;20230;-57
2022/01/09 02:11:03;;;;;;;56.40;32.10;;;;;;;8.14;92.58;98743.31;5070820;28;20203;-58
2022/01/09 02:13:31;;;;;;;58.43;31.50;;;;;;;8.06;92.82;98734.66;5070852;28;20209;-58
2022/01/09 02:16:00;;;;;;;58.37;32.93;;;;;;;8.06;92.46;98733.81;5070935;28;20223;-57
2022/01/09 02:18:27;;;;;;;51.97;30.60;;;;;;;8.10;92.67;98730.47;5070481;28;20194;-57
2022/01/09 02:20:55;;;;;;;61.03;34.20;;;;;;;8.14;92.52;98733.06;5070470;28;20201;-58
2022/01/09 02:23:22;;;;;;;58.00;33.40;;;;;;;8.19;92.41;98733.13;5070487;28;20280;-58
2022/01/09 02:25:50;;;;;;;59.37;32.83;;;;;;;8.19;92.08;98728.88;5070600;28;20195;-58
2022/01/09 02:28:18;;;;;;;58.27;33.07;;;;;;;8.20;91.73;98720.38;5070205;28;20233;-57
2022/01/09 02:30:46;;;;;;;61.70;32.90;;;;;;;8.20;91.65;98720.38;5070231;28;20196;-58
2022/01/09 02:33:17;;;;;;;55.23;32.10;;;;;;;8.17;91.41;98699.00;5070263;28;20193;-57
2022/01/09 02:35:44;;;;;;;57.17;32.03;;;;;;;8.22;90.65;98707.56;5070450;28;20275;-58
2022/01/09 02:38:12;;;;;;;53.57;31.13;;;;;;;8.22;90.61;98700.78;5070526;28;20244;-57
2022/01/09 02:40:39;;;;;;;53.90;32.10;;;;;;;8.19;91.09;98699.88;5070399;28;20290;-58
2022/01/09 02:43:06;;;;;;;50.83;30.63;;;;;;;8.13;90.91;98687.03;5070146;28;20205;-58
2022/01/09 02:45:33;;;;;;;56.80;31.73;;;;;;;8.10;90.50;98692.09;5070030;28;20199;-58
2022/01/09 02:48:02;;;;;;;58.43;31.53;;;;;;;8.11;90.61;98686.97;5070389;28;20684;-58
2022/01/09 02:50:37;;;;;;;55.23;32.40;;;;;;;8.18;90.57;98675.13;5070062;28;20192;-58
2022/01/09 02:53:17;;;;;;;52.47;32.23;;;;;;;8.17;90.58;98679.38;5070584;28;20301;-58
2022/01/09 02:55:45;;;;;;;56.47;31.87;;;;;;;8.20;89.99;98682.00;5070040;28;20259;-58
2022/01/09 02:58:12;;;;;;;51.53;31.33;;;;;;;8.22;90.22;98689.66;5070153;28;20205;-57
2022/01/09 03:00:42;;;;;;;53.47;31.63;;;;;;;8.24;90.14;98683.72;5069908;28;20198;-58
2022/01/09 03:03:09;;;;;;;52.27;31.23;;;;;;;8.25;89.95;98684.59;5070048;28;20293;-57
2022/01/09 03:05:36;;;;;;;63.58;37.53;;;;;;;8.27;90.14;98678.69;5069251;28;20528;-57
2022/01/09 03:08:04;;;;;;;63.60;36.20;;;;;;;8.32;89.89;98685.56;5069700;28;20218;-58
2022/01/09 03:10:31;;;;;;;58.87;35.00;;;;;;;8.37;89.43;98683.91;5069871;28;20189;-57
2022/01/09 03:13:00;;;;;;;57.23;32.67;;;;;;;8.37;89.70;98678.81;5070153;28;20280;-58
2022/01/09 03:15:27;;;;;;;57.20;32.53;;;;;;;8.34;89.62;98671.09;5069845;28;20198;-58
2022/01/09 03:17:54;;;;;;;54.13;31.80;;;;;;;8.42;89.97;98675.47;5070189;28;20218;-58
2022/01/09 03:20:23;;;;;;;50.70;31.53;;;;;;;8.40;89.34;98677.16;5069999;28;20196;-58
2022/01/09 03:22:50;;;;;;;56.60;33.03;;;;;;;8.40;89.39;98673.72;5070179;28;20202;-58
2022/01/09 03:25:17;;;;;;;55.97;32.50;;;;;;;8.40;89.42;98673.72;5069861;28;20200;-58
2022/01/09 03:27:48;;;;;;;59.07;32.17;;;;;;;8.43;89.35;98676.31;5069753;28;20672;-58
2022/01/09 03:30:17;;;;;;;56.63;32.20;;;;;;;8.30;89.11;98676.16;5069913;28;20183;-57
2022/01/09 03:32:45;;;;;;;55.10;33.27;;;;;;;8.10;89.90;98680.13;5069736;28;20274;-58
2022/01/09 03:35:14;;;;;;;51.47;31.97;;;;;;;8.15;90.64;98682.78;5069534;28;20288;-58
2022/01/09 03:37:43;;;;;;;56.67;33.70;;;;;;;8.21;90.51;98680.28;5069587;28;20194;-58
2022/01/09 03:40:12;;;;;;;59.30;34.20;;;;;;;8.22;91.19;98676.88;5069538;28;20287;-58
2022/01/09 03:42:39;;;;;;;60.03;33.87;;;;;;;8.26;91.27;98678.66;5070024;28;20193;-58
2022/01/09 03:45:09;;;;;;;55.27;33.27;;;;;;;8.29;91.07;98673.59;5073277;28;20202;-57
2022/01/09 03:47:37;;;;;;;60.57;32.33;;;;;;;8.25;91.37;98682.91;5073289;28;20195;-57
2022/01/09 03:50:05;;;;;;;56.30;32.03;;;;;;;8.23;90.83;98669.22;5073085;28;20204;-57
2022/01/09 03:52:33;;;;;;;59.33;33.40;;;;;;;8.30;90.50;98665.94;5073241;28;20285;-58
2022/01/09 03:55:00;;;;;;;59.63;32.87;;;;;;;8.31;90.29;98671.91;5073240;28;20191;-58
2022/01/09 03:57:27;;;;;;;55.77;31.73;;;;;;;8.32;90.20;98668.53;5073371;28;20199;-56
2022/01/09 03:59:54;;;;;;;58.17;33.40;;;;;;;8.33;89.84;98670.22;5073351;28;20187;-56
2022/01/09 04:02:21;;;;;;;52.80;33.10;;;;;;;8.37;90.02;98666.88;5072940;28;20289;-57
2022/01/09 04:04:49;;;;;;;58.63;33.47;;;;;;;8.39;89.84;98669.44;5072865;28;20201;-57
2022/01/09 04:07:17;;;;;;;64.57;40.33;;;;;;;8.49;90.08;98661.03;5072340;28;20433;-57
2022/01/09 04:09:45;;;;;;;63.97;35.87;;;;;;;8.51;89.67;98669.59;5073307;28;20341;-56
2022/01/09 04:12:17;;;;;;;59.93;34.43;;;;;;;8.47;89.40;98665.25;5072679;28;20202;-57
2022/01/09 04:14:44;;;;;;;54.77;32.87;;;;;;;8.32;89.69;98633.53;5072784;28;20257;-57
2022/01/09 04:17:17;;;;;;;51.77;31.17;;;;;;;8.44;89.76;98655.84;5072801;28;20200;-57
2022/01/09 04:19:44;;;;;;;50.00;32.33;;;;;;;8.44;89.86;98653.28;5072603;28;20196;-57
2022/01/09 04:22:12;;;;;;;52.80;31.73;;;;;;;8.47;89.81;98649.91;5072719;28;20319;-57
2022/01/09 04:24:39;;;;;;;60.17;31.87;;;;;;;8.44;90.43;98648.16;5072663;28;20190;-57
2022/01/09 04:27:07;;;;;;;51.77;30.77;;;;;;;8.42;90.43;98654.13;5072513;28;20203;-57
2022/01/09 04:29:34;;;;;;;51.63;31.07;;;;;;;8.39;90.35;98647.25;5072496;28;20685;-57
2022/01/09 04:32:01;;;;;;;49.27;29.47;;;;;;;8.31;90.85;98646.31;5072302;28;20194;-57
2022/01/09 04:34:28;;;;;;;54.97;31.10;;;;;;;8.27;91.03;98635.19;5072704;28;20302;-57
2022/01/09 04:36:58;;;;;;;53.30;30.63;;;;;;;8.32;90.84;98642.94;5072366;28;20670;-57
2022/01/09 04:39:27;;;;;;;50.83;28.80;;;;;;;8.26;90.83;98643.69;5072433;28;20657;-57
2022/01/09 04:41:54;;;;;;;49.83;29.83;;;;;;;8.29;90.92;98653.97;5072344;28;20196;-57
2022/01/09 04:44:21;;;;;;;52.13;31.13;;;;;;;8.34;90.56;98645.50;5072258;28;20447;-57
2022/01/09 04:46:55;;;;;;;53.53;32.10;;;;;;;8.37;90.30;98637.84;5072671;28;20282;-57
2022/01/09 04:49:25;;;;;;;55.20;32.37;;;;;;;8.35;90.20;98635.25;5072230;28;20272;-57
2022/01/09 04:51:52;;;;;;;50.47;32.53;;;;;;;8.32;89.96;98642.94;5071930;28;20196;-57
2022/01/09 04:54:19;;;;;;;58.90;32.20;;;;;;;8.32;90.27;98656.56;5071661;28;20198;-57
2022/01/09 04:56:47;;;;;;;54.27;32.33;;;;;;;8.32;90.05;98653.16;5071708;28;20203;-57
2022/01/09 04:59:14;;;;;;;54.43;31.20;;;;;;;8.32;90.00;98649.75;5072042;28;20186;-57
2022/01/09 05:01:41;;;;;;;55.23;32.53;;;;;;;8.27;89.39;98649.66;5071889;28;20190;-57
2022/01/09 05:04:08;;;;;;;52.20;32.03;;;;;;;8.24;89.11;98647.06;5071974;28;20208;-57
2022/01/09 05:06:34;;;;;;;59.10;32.50;;;;;;;8.26;89.21;98648.81;5071651;28;20199;-57
2022/01/09 05:09:01;;;;;;;52.57;31.57;;;;;;;8.27;89.51;98630.06;5071488;28;20705;-57
2022/01/09 05:11:28;;;;;;;52.83;31.10;;;;;;;8.26;89.51;98645.38;5071121;28;20677;-57
2022/01/09 05:13:56;;;;;;;51.60;31.93;;;;;;;8.26;89.32;98648.81;5071386;28;20198;-57
2022/01/09 05:16:23;;;;;;;56.03;32.53;;;;;;;8.22;89.52;98646.16;5071573;28;20574;-57
2022/01/09 05:18:57;;;;;;;55.53;33.37;;;;;;;8.22;89.44;98644.47;5071019;28;20273;-57
2022/01/09 05:21:24;;;;;;;60.60;31.30;;;;;;;8.17;89.61;98630.78;5070126;28;20190;-56
2022/01/09 05:23:51;;;;;;;51.67;31.03;;;;;;;8.22;89.90;98638.50;5069017;28;20211;-57
2022/01/09 05:26:18;;;;;;;55.97;32.17;;;;;;;8.18;90.31;98642.75;5069811;28;20199;-57
2022/01/09 05:28:45;;;;;;;55.37;33.17;;;;;;;8.14;90.25;98643.53;5078706;28;20222;-57
2022/01/09 05:31:14;;;;;;;55.87;32.93;;;;;;;8.22;90.08;98652.16;5080020;28;20176;-57
2022/01/09 05:33:41;;;;;;;59.30;33.73;;;;;;;8.19;90.43;98641.88;5070398;28;20193;-57
2022/01/09 05:36:08;;;;;;;58.23;32.13;;;;;;;8.24;90.30;98641.97;5071138;28;20211;-57
2022/01/09 05:38:35;;;;;;;56.50;32.93;;;;;;;8.28;90.04;98643.72;5071256;28;20559;-57
2022/01/09 05:41:02;;;;;;;60.43;33.10;;;;;;;8.30;90.15;98647.16;5070870;28;20202;-57
2022/01/09 05:43:29;;;;;;;59.57;32.40;;;;;;;8.31;90.08;98648.88;5071049;28;20201;-57
2022/01/09 05:45:56;;;;;;;62.10;33.40;;;;;;;8.29;90.60;98650.56;5070777;28;20201;-57
2022/01/09 05:48:25;;;;;;;58.80;37.83;;;;;;;8.34;90.39;98655.72;5069576;28;20514;-58
2022/01/09 05:50:52;;;;;;;56.40;35.13;;;;;;;8.34;90.08;98643.81;5070932;28;20198;-57
2022/01/09 05:53:18;;;;;;;55.07;31.00;;;;;;;8.34;89.88;98638.69;5070716;28;20194;-57
2022/01/09 05:55:45;;;;;;;56.60;32.20;;;;;;;8.25;89.83;98652.19;5070746;28;20194;-57
2022/01/09 05:58:12;;;;;;;55.57;31.83;;;;;;;8.23;90.14;98659.00;5070735;28;20294;-57
2022/01/09 06:00:39;;;;;;;58.80;33.20;;;;;;;8.26;90.29;98651.38;5070923;28;20278;-57
2022/01/09 06:03:06;;;;;;;58.50;31.03;;;;;;;8.28;90.66;98659.06;5070788;28;20196;-58
2022/01/09 06:05:35;;;;;;;48.63;30.03;;;;;;;8.25;90.21;98652.19;5070424;28;20276;-58
2022/01/09 06:08:01;;;;;;;57.83;30.37;;;;;;;8.26;90.14;98653.06;5070592;28;20185;-58
2022/01/09 06:10:28;;;;;;;47.33;28.20;;;;;;;8.25;89.80;98657.31;5070867;28;20342;-58
2022/01/09 06:12:55;;;;;;;50.23;30.00;;;;;;;8.24;89.50;98659.88;5069101;28;20310;-57
2022/01/09 06:15:22;;;;;;;47.97;27.30;;;;;;;8.20;89.61;98645.31;5060504;28;20202;-58
2022/01/09 06:17:49;;;;;;;45.63;26.43;;;;;;;8.22;89.80;98639.38;5059467;28;20200;-56
2022/01/09 06:20:16;;;;;;;50.17;28.90;;;;;;;8.21;90.02;98636.81;5070584;28;20999;-57
2022/01/09 06:22:45;;;;;;;45.03;28.10;;;;;;;8.19;90.52;98641.00;5070777;28;20205;-56
2022/01/09 06:25:13;;;;;;;50.37;28.30;;;;;;;8.20;90.19;98643.59;5070473;28;20249;-56
2022/01/09 06:27:40;;;;;;;44.17;28.47;;;;;;;8.22;89.80;98641.91;5070485;28;20233;-56
2022/01/09 06:30:09;;;;;;;52.93;29.57;;;;;;;8.26;89.74;98641.13;5070338;28;20233;-57
2022/01/09 06:32:36;;;;;;;51.20;29.03;;;;;;;8.24;89.29;98639.41;5070025;28;20195;-57
2022/01/09 06:35:04;;;;;;;46.57;28.30;;;;;;;8.24;89.09;98647.06;5070530;28;20280;-57
2022/01/09 06:37:31;;;;;;;49.20;28.57;;;;;;;8.30;89.29;98649.72;5070400;28;20558;-56
2022/01/09 06:39:59;;;;;;;45.63;29.37;;;;;;;8.28;89.11;98641.16;5070151;28;20656;-56
2022/01/09 06:42:26;;;;;;;48.50;29.90;;;;;;;8.35;88.90;98640.38;5070530;28;20206;-57
2022/01/09 06:44:53;;;;;;;47.43;29.80;;;;;;;8.38;88.91;98637.03;5070119;28;20192;-56
2022/01/09 06:47:20;;;;;;;49.70;29.87;;;;;;;8.37;89.22;98631.03;5069997;28;20193;-57
2022/01/09 06:49:47;;;;;;;51.17;30.20;;;;;;;8.45;89.13;98624.31;5070065;28;20292;-57
2022/01/09 06:52:15;;;;;;;47.37;30.37;;;;;;;8.47;88.71;98625.16;5070021;28;20251;-58
2022/01/09 06:54:42;;;;;;;50.43;30.77;;;;;;;8.50;88.42;98622.66;5069761;28;20187;-58
2022/01/09 06:57:10;;;;;;;50.43;29.63;;;;;;;8.53;88.47;98614.13;5069828;28;20674;-59
2022/01/09 06:59:37;;;;;;;50.47;31.30;;;;;;;8.49;89.11;98607.28;5069891;28;20187;-56
2022/01/09 07:02:04;;;;;;;45.80;27.67;;;;;;;8.47;88.31;98601.28;5070045;28;20274;-56
2022/01/09 07:04:31;;;;;;;48.07;28.60;;;;;;;8.42;88.26;98601.22;5069638;28;20380;-57
2022/01/09 07:06:58;;;;;;;43.83;27.03;;;;;;;8.41;89.07;98602.06;5069995;28;20221;-57
2022/01/09 07:09:25;;;;;;;45.33;28.03;;;;;;;8.48;88.69;98606.41;5069990;28;20215;-57
2022/01/09 07:11:52;;;;;;;49.60;28.83;;;;;;;8.53;87.75;98603.91;5069301;28;20287;-57
2022/01/09 07:14:20;;;;;;;51.17;31.13;;;;;;;8.49;87.89;98603.00;5069285;28;20191;-57
2022/01/09 07:16:47;;;;;;;45.57;30.50;;;;;;;8.49;88.07;98610.69;5068492;28;20184;-57
2022/01/09 07:19:14;;;;;;;49.23;30.00;;;;;;;8.57;87.80;98609.06;5071811;28;20200;-57
2022/01/09 07:21:41;;;;;;;44.27;28.40;;;;;;;8.64;87.21;98608.28;5073228;28;20313;-57
2022/01/09 07:24:08;;;;;;;48.05;35.22;;;;;;;8.67;86.53;98608.31;5072000;28;20442;-58
2022/01/09 07:26:34;;;;;;;49.07;31.43;;;;;;;8.74;85.82;98612.63;5073371;28;20230;-57
2022/01/09 07:29:01;;;;;;;48.90;28.77;;;;;;;8.74;86.08;98607.50;5072727;28;20705;-58
2022/01/09 07:31:30;;;;;;;41.83;27.70;;;;;;;8.70;85.94;98595.53;5073202;28;20183;-57
2022/01/09 07:33:57;;;;;;;47.90;29.87;;;;;;;8.70;85.95;98605.78;5072644;28;20281;-58
2022/01/09 07:36:23;;;;;;;47.57;28.97;;;;;;;8.78;86.06;98609.28;5073335;28;20642;-58
2022/01/09 07:38:50;;;;;;;48.30;29.70;;;;;;;8.83;86.31;98615.28;5073490;28;20622;-57
2022/01/09 07:41:17;;;;;;;69.17;40.97;;;;;;;8.77;86.25;98609.25;5073249;28;20199;-58
2022/01/09 07:43:44;;;;;;;64.90;38.60;;;;;;;8.78;86.16;98599.03;5073048;28;20269;-57
2022/01/09 07:46:11;;;;;;;50.03;30.60;;;;;;;8.83;86.17;98594.81;5069946;28;20566;-58
2022/01/09 07:48:39;;;;;;;47.27;28.47;;;;;;;8.85;86.18;98595.66;5072708;28;20566;-58
2022/01/09 07:51:07;;;;;;;41.40;27.73;;;;;;;8.88;86.04;98599.94;5073088;28;20222;-57
2022/01/09 07:53:34;;;;;;;47.93;29.90;;;;;;;8.86;86.08;98592.28;5073126;28;20583;-57
2022/01/09 07:56:01;;;;;;;49.83;28.20;;;;;;;8.84;86.07;98581.13;5072824;28;20278;-57
2022/01/09 07:58:27;;;;;;;38.90;25.23;;;;;;;8.85;85.96;98590.53;5072948;28;20202;-57
2022/01/09 08:00:54;;;;;;;36.27;24.50;;;;;;;8.90;86.38;98594.00;5072756;28;20253;-58
2022/01/09 08:03:21;;;;;;;40.77;26.73;;;;;;;8.97;85.94;98587.22;5074064;28;20195;-58
2022/01/09 08:05:49;;;;;;;43.50;27.83;;;;;;;8.96;86.44;98588.06;5073816;28;20278;-58
2022/01/09 08:08:16;;;;;;;41.70;28.23;;;;;;;8.98;86.30;98588.09;5072318;28;20687;-58
2022/01/09 08:10:43;;;;;;;41.47;27.20;;;;;;;8.96;85.32;98587.19;5073090;28;20203;-58
2022/01/09 08:13:10;;;;;;;42.00;26.10;;;;;;;9.05;85.11;98577.03;5072304;28;20199;-58
2022/01/09 08:15:37;;;;;;;39.57;25.70;;;;;;;9.08;84.45;98582.19;5072382;28;20199;-58
2022/01/09 08:18:04;;;;;;;41.80;25.53;;;;;;;9.07;84.86;98586.44;5072499;28;20205;-58
2022/01/09 08:20:32;;;;;;;48.13;28.17;;;;;;;9.06;84.77;98584.75;5071931;28;20194;-58
2022/01/09 08:23:00;;;;;;;51.80;30.57;;;;;;;9.16;84.87;98589.09;5071931;28;20194;-59
2022/01/09 08:25:27;;;;;;;48.07;30.00;;;;;;;9.18;84.74;98594.19;5071967;28;20183;-58
2022/01/09 08:27:55;;;;;;;50.37;31.03;;;;;;;9.16;85.18;98595.91;5071992;28;20212;-57
2022/01/09 08:30:22;;;;;;;47.40;30.73;;;;;;;9.17;85.67;98593.38;5071393;28;20286;-58
2022/01/09 08:32:51;;;;;;;45.77;28.80;;;;;;;9.11;85.47;98584.75;5071576;28;20198;-58
2022/01/09 08:35:19;;;;;;;44.57;29.47;;;;;;;9.04;85.46;98576.16;5070152;28;20226;-58
2022/01/09 08:37:46;;;;;;;46.83;29.33;;;;;;;9.06;86.16;98578.75;5071672;28;20665;-59
2022/01/09 08:40:19;;;;;;;40.43;27.03;;;;;;;8.98;86.83;98575.28;5072283;28;20199;-58
2022/01/09 08:42:47;;;;;;;41.43;25.97;;;;;;;9.06;86.92;98565.94;5072145;28;20214;-58
2022/01/09 08:45:15;;;;;;;46.17;30.05;;;;;;;9.00;86.48;98560.78;5071293;28;21023;-57
2022/01/09 08:47:42;;;;;;;36.73;24.73;;;;;;;9.09;86.37;98561.69;5071729;28;20191;-57
2022/01/09 08:50:12;;;;;;;41.37;27.20;;;;;;;9.17;85.35;98572.00;5071671;28;20697;-58
2022/01/09 08:52:39;;;;;;;37.07;25.27;;;;;;;9.06;84.94;98569.38;5071589;28;20201;-57
2022/01/09 08:55:07;;;;;;;41.93;28.13;;;;;;;8.97;85.84;98566.72;5071469;28;20696;-57
2022/01/09 08:57:36;;;;;;;50.90;32.10;;;;;;;9.06;86.01;98568.50;5071647;28;20202;-58
2022/01/09 09:00:05;;;;;;;57.58;39.78;;;;;;;9.05;85.53;98564.22;5071262;28;20517;-58
2022/01/09 09:02:32;;;;;;;52.40;34.77;;;;;;;9.01;85.50;98545.41;5071676;28;20206;-56
2022/01/09 09:04:59;;;;;;;49.50;32.00;;;;;;;9.06;85.08;98558.25;5071506;28;20195;-57
2022/01/09 09:07:26;;;;;;;39.97;25.17;;;;;;;9.07;85.73;98552.28;5071523;28;20203;-57
2022/01/09 09:09:53;;;;;;;39.70;25.57;;;;;;;9.09;85.07;98554.00;5071313;28;20707;-58
2022/01/09 09:12:20;;;;;;;40.23;26.53;;;;;;;9.09;85.18;98555.72;5071694;28;20201;-58
2022/01/09 09:14:49;;;;;;;41.93;26.17;;;;;;;9.13;85.23;98550.63;5071342;28;20198;-58
2022/01/09 09:17:16;;;;;;;44.40;25.90;;;;;;;9.18;85.15;98548.06;5071311;28;20195;-58
2022/01/09 09:19:43;;;;;;;44.60;27.57;;;;;;;9.14;84.96;98538.66;5071051;28;20193;-58
2022/01/09 09:22:10;;;;;;;39.27;26.97;;;;;;;9.20;85.17;98536.97;5071171;28;20233;-58
2022/01/09 09:24:37;;;;;;;39.90;25.63;;;;;;;9.19;84.94;98524.19;5071170;28;20230;-56
2022/01/09 09:27:05;;;;;;;44.83;28.23;;;;;;;9.22;85.82;98527.63;5070721;28;20195;-57
2022/01/09 09:29:32;;;;;;;43.47;28.47;;;;;;;9.19;85.52;98514.78;5070907;28;20671;-58
2022/01/09 09:32:00;;;;;;;41.67;27.57;;;;;;;9.22;86.07;98531.88;5070635;28;20199;-58
2022/01/09 09:34:27;;;;;;;42.80;25.10;;;;;;;9.28;85.42;98526.81;5071138;28;20199;-58
2022/01/09 09:36:56;;;;;;;40.37;26.13;;;;;;;9.35;85.39;98521.72;5070702;28;20287;-59
2022/01/09 09:39:23;;;;;;;40.37;26.70;;;;;;;9.33;85.15;98523.41;5070713;28;20658;-58
2022/01/09 09:41:51;;;;;;;41.23;26.37;;;;;;;9.37;85.25;98516.56;5069993;28;20289;-58
2022/01/09 09:44:18;;;;;;;39.10;25.98;;;;;;;9.38;84.92;98516.59;5070803;28;20383;-58
2022/01/09 09:46:49;;;;;;;39.47;26.87;;;;;;;9.32;84.44;98515.69;5071330;28;20206;-58
2022/01/09 09:49:18;;;;;;;43.57;27.47;;;;;;;9.39;84.66;98515.72;5070260;28;20237;-58
2022/01/09 09:51:45;;;;;;;42.53;27.27;;;;;;;9.42;84.68;98530.31;5070268;28;20593;-58
2022/01/09 09:54:12;;;;;;;46.33;28.57;;;;;;;9.42;84.81;98514.91;5070271;28;20195;-58
2022/01/09 09:56:39;;;;;;;39.60;27.00;;;;;;;9.49;84.51;98511.53;5070605;28;20192;-58
2022/01/09 09:59:06;;;;;;;46.83;31.37;;;;;;;9.55;84.18;98509.00;5070517;28;20278;-57
2022/01/09 10:01:36;;;;;;;41.63;27.93;;;;;;;9.52;84.48;98503.00;5070719;28;20191;-58
2022/01/09 10:04:06;;;;;;;39.60;27.17;;;;;;;9.46;84.48;98497.00;5070332;28;20290;-58
2022/01/09 10:06:44;;;;;;;44.00;28.83;;;;;;;9.42;84.65;98489.28;5070357;28;20283;-58
2022/01/09 10:09:14;;;;;;;42.13;27.63;;;;;;;9.36;85.44;98486.69;5070229;28;20210;-58
2022/01/09 10:11:44;;;;;;;40.90;27.03;;;;;;;9.35;84.86;98490.09;5070166;28;20215;-58
2022/01/09 10:14:20;;;;;;;44.13;28.52;;;;;;;9.31;84.95;98489.22;5070088;28;20491;-58
2022/01/09 10:17:16;;;;;;;43.37;27.70;;;;;;;9.41;84.86;98491.00;5070172;28;20274;-58
2022/01/09 10:19:50;;;;;;;41.23;26.97;;;;;;;9.40;84.48;98485.84;5070149;28;20555;-58
2022/01/09 10:22:34;;;;;;;41.17;26.63;;;;;;;9.41;83.90;98491.00;5070062;28;20202;-58
2022/01/09 10:25:23;;;;;;;39.13;27.83;;;;;;;9.45;83.95;98479.00;5070007;28;20285;-58
2022/01/09 10:27:55;;;;;;;38.47;25.87;;;;;;;9.48;84.63;98489.28;5060581;28;20233;-58
2022/01/09 10:30:24;;;;;;;40.00;24.07;;;;;;;9.31;84.13;98458.44;5069920;28;20223;-58
2022/01/09 10:32:56;;;;;;;36.97;24.27;;;;;;;9.51;83.75;98481.63;5069766;28;20274;-57
2022/01/09 10:35:24;;;;;;;33.43;23.53;;;;;;;9.55;83.21;98474.81;5050634;28;20564;-58
2022/01/09 10:38:08;;;;;;;35.97;24.67;;;;;;;9.58;83.08;98474.81;5049819;28;20710;-58
2022/01/09 10:40:38;;;;;;;39.43;25.57;;;;;;;9.61;82.78;98467.13;5049891;28;20199;-58
2022/01/09 10:43:08;;;;;;;36.80;24.53;;;;;;;9.63;82.83;98463.72;5049769;28;20200;-58
2022/01/09 10:45:38;;;;;;;38.67;24.83;;;;;;;9.58;83.19;98462.84;5049738;28;20203;-57
2022/01/09 10:48:08;;;;;;;38.90;23.23;;;;;;;9.63;83.03;98455.16;5049533;28;20290;-57
2022/01/09 10:50:38;;;;;;;34.47;23.63;;;;;;;9.67;82.71;98446.66;5049570;28;20232;-57
2022/01/09 10:53:21;;;;;;;34.23;21.33;;;;;;;9.69;82.55;98438.09;5051402;28;20199;-57
2022/01/09 10:56:00;;;;;;;35.73;22.47;;;;;;;9.74;82.92;98441.53;5053561;28;20203;-59
2022/01/09 10:58:28;;;;;;;33.23;23.50;;;;;;;9.73;82.48;98439.81;5053624;28;20203;-57
2022/01/09 11:01:14;;;;;;;40.37;25.27;;;;;;;9.74;82.03;98432.97;5053382;28;20188;-57
2022/01/09 11:03:43;;;;;;;33.33;22.93;;;;;;;9.72;82.38;98424.44;5046291;28;20218;-58
2022/01/09 11:06:10;;;;;;;35.40;23.27;;;;;;;9.64;82.00;98408.16;5053741;28;20286;-60
2022/01/09 11:08:40;;;;;;;36.47;24.27;;;;;;;9.76;81.83;98429.56;5053447;28;20199;-59
2022/01/09 11:11:17;;;;;;;38.00;23.40;;;;;;;9.76;81.72;98424.44;5053665;28;20953;-58
2022/01/09 11:13:46;;;;;;;32.93;22.63;;;;;;;9.77;81.77;98417.59;5053058;28;20197;-58
2022/01/09 11:19:01;;;;;;;31.57;21.30;;;;;;;9.83;81.94;98400.50;5053475;28;20272;-58
2022/01/09 11:21:28;;;;;;;30.27;20.97;;;;;;;9.85;81.56;98396.25;5053218;28;20667;-58
2022/01/09 11:24:09;;;;;;;33.83;22.07;;;;;;;9.81;81.02;98399.63;5053275;28;20207;-58
2022/01/09 11:26:51;;;;;;;33.73;22.50;;;;;;;9.78;81.57;98397.06;5052687;28;20196;-58
2022/01/09 11:29:26;;;;;;;36.37;24.77;;;;;;;9.81;81.79;98389.38;5052483;28;20224;-58
2022/01/09 11:32:03;;;;;;;33.53;23.87;;;;;;;9.85;81.77;98393.66;5052783;28;20678;-58